createdAt,value
2018-12-04T00:00:36.190Z,8.27
2018-12-04T00:03:06.988Z,8.27
2018-12-04T00:05:36.420Z,8.24
2018-12-04T00:08:05.797Z,8.19
2018-12-04T00:10:35.327Z,8.21
2018-12-04T00:13:04.733Z,8.11
2018-12-04T00:15:33.992Z,8.09
2018-12-04T00:18:03.598Z,8.09
2018-12-04T00:20:33.006Z,8.10
2018-12-04T00:23:02.704Z,8.10
2018-12-04T00:25:31.982Z,8.07
2018-12-04T00:28:01.237Z,8.10
2018-12-04T00:30:30.724Z,8.07
2018-12-04T00:32:59.995Z,8.11
2018-12-04T00:35:29.179Z,8.17
2018-12-04T00:37:58.665Z,8.24
2018-12-04T00:40:27.988Z,8.16
2018-12-04T00:42:57.481Z,8.13
2018-12-04T00:45:26.818Z,8.03
2018-12-04T00:47:56.439Z,8.04
2018-12-04T00:50:25.682Z,8.03
2018-12-04T00:52:55.235Z,8.08
2018-12-04T00:55:24.623Z,8.11
2018-12-04T00:57:53.939Z,8.08
2018-12-04T01:00:23.349Z,8.06
2018-12-04T01:02:52.727Z,8.06
2018-12-04T01:05:21.987Z,8.04
2018-12-04T01:07:51.108Z,8.07
2018-12-04T01:10:20.420Z,8.04
2018-12-04T01:12:49.588Z,8.10
2018-12-04T01:15:18.785Z,8.15
2018-12-04T01:17:48.218Z,8.13
2018-12-04T01:20:17.636Z,8.13
2018-12-04T01:22:46.911Z,8.19
2018-12-04T01:25:16.169Z,8.19
2018-12-04T01:27:45.517Z,8.19
2018-12-04T01:30:14.722Z,8.24
2018-12-04T01:32:44.158Z,8.25
2018-12-04T01:35:13.655Z,8.27
2018-12-04T01:37:42.774Z,8.27
2018-12-04T01:40:12.452Z,8.31
2018-12-04T01:42:42.219Z,8.24
2018-12-04T01:45:11.928Z,8.30
2018-12-04T01:47:41.500Z,8.33
2018-12-04T01:50:11.282Z,8.34
2018-12-04T01:52:40.836Z,8.30
2018-12-04T01:55:10.299Z,8.30
2018-12-04T01:57:39.867Z,8.29
2018-12-04T02:00:09.555Z,8.26
2018-12-04T02:02:39.185Z,8.20
2018-12-04T02:05:08.466Z,8.20
2018-12-04T02:07:37.688Z,8.17
2018-12-04T02:10:07.401Z,8.15
2018-12-04T02:12:36.550Z,8.11
2018-12-04T02:15:07.439Z,8.07
2018-12-04T02:17:36.802Z,8.09
2018-12-04T02:20:06.402Z,8.05
2018-12-04T02:22:35.926Z,8.07
2018-12-04T02:25:05.203Z,8.10
2018-12-04T02:27:34.457Z,8.10
2018-12-04T02:30:03.853Z,8.09
2018-12-04T02:32:33.071Z,8.02
2018-12-04T02:35:02.313Z,8.09
2018-12-04T02:37:31.595Z,8.09
2018-12-04T02:40:00.980Z,8.10
2018-12-04T02:42:30.211Z,8.02
2018-12-04T02:44:59.402Z,8.02
2018-12-04T02:47:28.758Z,8.03
2018-12-04T02:49:57.967Z,8.02
2018-12-04T02:52:27.461Z,8.05
2018-12-04T02:54:56.589Z,7.98
2018-12-04T02:57:25.738Z,8.01
2018-12-04T02:59:55.012Z,8.02
2018-12-04T03:02:24.300Z,8.02
2018-12-04T03:04:53.520Z,8.03
2018-12-04T03:07:23.724Z,7.97
2018-12-04T03:09:52.841Z,7.94
2018-12-04T03:12:22.023Z,7.99
2018-12-04T03:14:51.035Z,8.00
2018-12-04T03:17:20.159Z,7.95
2018-12-04T03:19:49.547Z,7.99
2018-12-04T03:22:18.776Z,7.95
2018-12-04T03:24:48.354Z,7.92
2018-12-04T03:27:17.622Z,7.90
2018-12-04T03:29:46.683Z,7.87
2018-12-04T03:32:15.943Z,7.91
2018-12-04T03:34:45.208Z,7.85
2018-12-04T03:37:14.441Z,7.84
2018-12-04T03:39:43.620Z,7.86
2018-12-04T03:42:12.870Z,7.82
2018-12-04T03:44:42.459Z,7.72
2018-12-04T03:47:11.980Z,7.72
2018-12-04T03:49:41.549Z,7.72
2018-12-04T03:52:10.954Z,7.74
2018-12-04T03:54:40.534Z,7.71
2018-12-04T03:57:10.143Z,7.72
2018-12-04T03:59:39.579Z,7.74
2018-12-04T04:02:09.029Z,7.76
2018-12-04T04:04:38.379Z,7.73
2018-12-04T04:07:07.715Z,7.73
2018-12-04T04:09:37.142Z,7.70
2018-12-04T04:12:06.642Z,7.62
2018-12-04T04:14:36.048Z,7.58
2018-12-04T04:17:05.399Z,7.58
2018-12-04T04:19:34.732Z,6.86
2018-12-04T04:22:04.012Z,7.60
2018-12-04T04:24:33.115Z,7.59
2018-12-04T04:27:02.296Z,7.61
2018-12-04T04:29:31.651Z,7.60
2018-12-04T04:32:00.984Z,7.66
2018-12-04T04:34:30.258Z,7.60
2018-12-04T04:36:59.454Z,7.62
2018-12-04T04:39:28.821Z,7.65
2018-12-04T04:41:58.185Z,7.65
2018-12-04T04:44:27.461Z,7.60
2018-12-04T04:46:56.802Z,7.57
2018-12-04T04:49:26.158Z,7.60
2018-12-04T04:51:55.388Z,7.60
2018-12-04T04:54:24.855Z,7.61
2018-12-04T04:56:54.761Z,7.58
2018-12-04T04:59:24.320Z,7.61
2018-12-04T05:01:53.627Z,7.63
2018-12-04T05:04:22.975Z,7.64
2018-12-04T05:06:52.198Z,7.62
2018-12-04T05:09:21.573Z,7.66
2018-12-04T05:11:50.824Z,7.60
2018-12-04T05:14:20.053Z,7.61
2018-12-04T05:16:49.298Z,7.61
2018-12-04T05:19:18.581Z,7.58
2018-12-04T05:21:47.864Z,7.55
2018-12-04T05:24:17.153Z,7.59
2018-12-04T05:26:46.523Z,7.60
2018-12-04T05:29:15.803Z,7.62
2018-12-04T05:31:44.956Z,7.62
2018-12-04T05:34:14.358Z,7.61
2018-12-04T05:36:43.641Z,7.67
2018-12-04T05:39:12.857Z,7.61
2018-12-04T05:41:42.367Z,7.59
2018-12-04T05:44:11.984Z,7.55
2018-12-04T05:46:41.334Z,7.56
2018-12-04T05:49:10.587Z,7.54
2018-12-04T05:51:40.113Z,7.53
2018-12-04T05:54:14.173Z,7.54
2018-12-04T05:56:43.880Z,7.52
2018-12-04T05:59:13.334Z,7.44
2018-12-04T06:01:42.533Z,7.45
2018-12-04T06:04:12.071Z,7.45
2018-12-04T06:06:41.418Z,7.44
2018-12-04T06:09:11.557Z,7.42
2018-12-04T06:11:41.342Z,7.47
2018-12-04T06:14:10.657Z,7.47
2018-12-04T06:16:40.114Z,7.47
2018-12-04T06:19:09.531Z,7.51
2018-12-04T06:21:39.224Z,7.54
2018-12-04T06:24:09.051Z,7.56
2018-12-04T06:26:38.546Z,7.60
2018-12-04T06:29:07.729Z,7.56
2018-12-04T06:31:37.159Z,7.54
2018-12-04T06:34:06.718Z,7.59
2018-12-04T06:36:36.454Z,7.65
2018-12-04T06:39:08.031Z,7.68
2018-12-04T06:41:37.576Z,7.73
2018-12-04T06:44:06.932Z,7.75
2018-12-04T06:46:36.230Z,7.78
2018-12-04T06:49:06.087Z,7.75
2018-12-04T06:51:35.406Z,7.78
2018-12-04T06:54:04.723Z,7.94
2018-12-04T06:56:33.974Z,8.13
2018-12-04T06:59:02.954Z,8.04
2018-12-04T07:01:32.727Z,7.98
2018-12-04T07:04:01.997Z,7.91
2018-12-04T07:06:31.225Z,7.88
2018-12-04T07:09:00.212Z,7.90
2018-12-04T07:11:29.511Z,7.94
2018-12-04T07:13:58.814Z,7.89
2018-12-04T07:16:27.744Z,7.87
2018-12-04T07:18:57.157Z,7.96
2018-12-04T07:21:26.485Z,7.83
2018-12-04T07:23:55.726Z,7.96
2018-12-04T07:26:24.980Z,7.95
2018-12-04T07:28:54.444Z,7.95
2018-12-04T07:31:23.857Z,7.96
2018-12-04T07:33:53.191Z,7.99
2018-12-04T07:36:28.688Z,7.87
2018-12-04T07:38:58.028Z,7.88
2018-12-04T07:41:27.271Z,7.90
2018-12-04T07:43:56.727Z,7.98
2018-12-04T07:46:26.038Z,7.98
2018-12-04T07:48:55.289Z,8.00
2018-12-04T07:51:24.679Z,7.96
2018-12-04T07:53:53.948Z,7.99
2018-12-04T07:56:23.254Z,7.98
2018-12-04T07:58:52.932Z,8.01
2018-12-04T08:01:22.338Z,7.98
2018-12-04T08:03:51.631Z,8.01
2018-12-04T08:06:20.901Z,7.98
2018-12-04T08:08:50.120Z,8.04
2018-12-04T08:11:19.468Z,8.04
2018-12-04T08:13:48.773Z,8.01
2018-12-04T08:16:18.125Z,8.03
2018-12-04T08:18:47.680Z,8.06
2018-12-04T08:21:30.583Z,7.99
2018-12-04T08:23:59.743Z,7.88
2018-12-04T08:26:29.065Z,7.82
2018-12-04T08:28:58.247Z,7.74
2018-12-04T08:31:27.264Z,7.73
2018-12-04T08:33:56.749Z,7.71
2018-12-04T08:36:26.008Z,7.62
2018-12-04T08:38:55.168Z,7.63
2018-12-04T08:41:24.336Z,7.55
2018-12-04T08:43:53.647Z,7.62
2018-12-04T08:46:23.404Z,7.65
2018-12-04T08:48:52.775Z,7.69
2018-12-04T08:51:22.181Z,7.70
2018-12-04T08:53:51.591Z,7.65
2018-12-04T08:56:20.951Z,7.67
2018-12-04T08:58:50.133Z,7.59
2018-12-04T09:01:19.393Z,7.59
2018-12-04T09:03:48.581Z,7.58
2018-12-04T09:06:18.148Z,7.55
2018-12-04T09:08:47.600Z,7.57
2018-12-04T09:11:17.043Z,7.54
2018-12-04T09:13:46.409Z,7.45
2018-12-04T09:16:15.805Z,7.43
2018-12-04T09:18:45.198Z,7.48
2018-12-04T09:21:14.720Z,7.54
2018-12-04T09:23:44.261Z,7.55
2018-12-04T09:26:13.627Z,7.58
2018-12-04T09:28:43.236Z,7.58
2018-12-04T09:31:12.537Z,7.58
2018-12-04T09:33:42.001Z,7.53
2018-12-04T09:36:11.542Z,7.60
2018-12-04T09:38:41.048Z,7.56
2018-12-04T09:41:10.511Z,7.59
2018-12-04T09:43:39.939Z,7.50
2018-12-04T09:46:09.436Z,7.41
2018-12-04T09:48:38.925Z,7.20
2018-12-04T09:51:24.467Z,7.16
2018-12-04T09:53:54.733Z,7.14
2018-12-04T09:56:24.033Z,7.18
2018-12-04T09:58:53.361Z,7.32
2018-12-04T10:01:22.622Z,7.32
2018-12-04T10:03:51.975Z,7.29
2018-12-04T10:06:21.368Z,7.24
2018-12-04T10:08:50.796Z,7.34
2018-12-04T10:11:20.114Z,7.30
2018-12-04T10:13:49.407Z,7.23
2018-12-04T10:16:18.751Z,7.16
2018-12-04T10:18:48.159Z,7.08
2018-12-04T10:21:17.359Z,7.22
2018-12-04T10:23:46.974Z,7.22
2018-12-04T10:26:16.252Z,7.18
2018-12-04T10:28:45.601Z,7.21
2018-12-04T10:31:14.891Z,7.18
2018-12-04T10:33:44.063Z,7.01
2018-12-04T10:36:13.431Z,7.01
2018-12-04T10:38:42.744Z,7.07
2018-12-04T10:41:12.460Z,7.10
2018-12-04T10:43:41.923Z,6.87
2018-12-04T10:46:11.469Z,6.96
2018-12-04T10:48:40.965Z,6.93
2018-12-04T10:51:10.522Z,6.89
2018-12-04T10:53:40.219Z,6.84
2018-12-04T10:56:09.572Z,6.79
2018-12-04T10:58:39.016Z,6.82
2018-12-04T11:01:13.283Z,6.94
2018-12-04T11:03:42.565Z,6.94
2018-12-04T11:06:12.013Z,6.83
2018-12-04T11:08:41.588Z,6.76
2018-12-04T11:11:10.938Z,6.94
2018-12-04T11:13:40.457Z,6.91
2018-12-04T11:16:09.970Z,6.93
2018-12-04T11:18:40.043Z,6.97
2018-12-04T11:21:09.399Z,7.01
2018-12-04T11:23:38.948Z,7.09
2018-12-04T11:26:09.523Z,7.21
2018-12-04T11:28:39.434Z,7.17
2018-12-04T11:31:08.512Z,7.16
2018-12-04T11:33:37.722Z,7.13
2018-12-04T11:36:06.947Z,7.24
2018-12-04T11:38:36.266Z,7.23
2018-12-04T11:41:05.507Z,7.27
2018-12-04T11:43:34.823Z,7.35
2018-12-04T11:46:04.235Z,7.36
2018-12-04T11:48:33.560Z,7.34
2018-12-04T11:51:02.799Z,7.43
2018-12-04T11:53:32.103Z,7.37
2018-12-04T11:56:02.974Z,7.39
2018-12-04T11:58:32.408Z,7.43
2018-12-04T12:01:01.917Z,7.53
2018-12-04T12:03:31.252Z,7.57
2018-12-04T12:06:00.599Z,7.58
2018-12-04T12:08:29.841Z,7.51
2018-12-04T12:10:59.135Z,7.60
2018-12-04T12:13:28.503Z,7.62
2018-12-04T12:15:57.875Z,7.62
2018-12-04T12:18:27.183Z,7.62
2018-12-04T12:20:56.443Z,7.58
2018-12-04T12:23:25.877Z,7.46
2018-12-04T12:25:55.201Z,7.44
2018-12-04T12:28:24.530Z,7.43
2018-12-04T12:30:54.186Z,7.33
2018-12-04T12:33:23.454Z,7.32
2018-12-04T12:35:52.954Z,7.30
2018-12-04T12:38:22.144Z,7.15
2018-12-04T12:40:51.364Z,7.21
2018-12-04T12:43:21.517Z,7.19
2018-12-04T12:45:50.969Z,7.16
2018-12-04T12:48:20.287Z,7.18
2018-12-04T12:50:49.518Z,7.11
2018-12-04T12:53:18.806Z,7.16
2018-12-04T12:55:48.270Z,7.16
2018-12-04T12:58:17.795Z,7.08
2018-12-04T13:00:47.117Z,7.12
2018-12-04T13:03:16.357Z,7.13
2018-12-04T13:05:45.688Z,7.07
2018-12-04T13:08:15.041Z,7.04
2018-12-04T13:10:44.297Z,7.04
2018-12-04T13:13:13.463Z,7.04
2018-12-04T13:15:42.767Z,7.07
2018-12-04T13:18:12.112Z,7.00
2018-12-04T13:20:41.620Z,7.02
2018-12-04T13:23:10.983Z,7.02
2018-12-04T13:25:40.904Z,6.98
2018-12-04T13:28:10.364Z,6.91
2018-12-04T13:30:39.607Z,6.93
2018-12-04T13:33:09.440Z,6.91
2018-12-04T13:35:38.955Z,6.88
2018-12-04T13:38:08.431Z,6.85
2018-12-04T13:40:37.812Z,6.81
2018-12-04T13:43:07.212Z,6.79
2018-12-04T13:45:36.614Z,6.76
2018-12-04T13:48:06.114Z,6.70
2018-12-04T13:50:35.462Z,6.71
2018-12-04T13:53:04.726Z,6.70
2018-12-04T13:55:34.289Z,6.63
2018-12-04T13:58:03.630Z,6.52
2018-12-04T14:00:33.000Z,6.57
2018-12-04T14:03:02.218Z,6.62
2018-12-04T14:05:31.584Z,6.62
2018-12-04T14:08:00.909Z,6.58
2018-12-04T14:10:30.211Z,6.52
2018-12-04T14:12:59.619Z,6.61
2018-12-04T14:15:29.092Z,6.61
2018-12-04T14:17:58.637Z,6.61
2018-12-04T14:20:27.810Z,6.48
2018-12-04T14:22:56.941Z,6.56
2018-12-04T14:25:26.267Z,6.52
2018-12-04T14:27:55.717Z,6.50
2018-12-04T14:30:24.871Z,6.51
2018-12-04T14:32:54.582Z,6.41
2018-12-04T14:35:24.880Z,6.44
2018-12-04T14:37:54.285Z,6.36
2018-12-04T14:40:23.793Z,6.37
2018-12-04T14:42:55.210Z,6.38
2018-12-04T14:45:25.197Z,6.41
2018-12-04T14:47:54.549Z,6.40
2018-12-04T14:50:24.456Z,6.48
2018-12-04T14:52:55.239Z,6.40
2018-12-04T14:55:24.987Z,6.35
2018-12-04T14:57:56.341Z,6.42
2018-12-04T15:00:39.976Z,6.31
2018-12-04T15:03:09.195Z,6.37
2018-12-04T15:05:40.897Z,6.33
2018-12-04T15:08:15.899Z,6.34
2018-12-04T15:10:45.387Z,6.35
2018-12-04T15:13:14.857Z,6.26
2018-12-04T15:15:44.315Z,6.26
2018-12-04T15:18:14.662Z,6.27
2018-12-04T15:20:43.958Z,6.28
2018-12-04T15:23:17.861Z,6.26
2018-12-04T15:25:50.277Z,6.24
2018-12-04T15:28:19.466Z,6.20
2018-12-04T15:30:48.853Z,6.27
2018-12-04T15:33:18.236Z,6.24
2018-12-04T15:35:47.906Z,6.25
2018-12-04T15:38:28.149Z,6.20
2018-12-04T15:41:09.152Z,6.21
2018-12-04T15:43:45.967Z,6.22
2018-12-04T15:46:20.556Z,6.12
2018-12-04T15:48:51.269Z,6.17
2018-12-04T15:51:20.469Z,6.24
2018-12-04T15:53:49.815Z,6.19
2018-12-04T15:56:19.212Z,6.18
2018-12-04T15:58:50.656Z,6.20
2018-12-04T16:01:22.175Z,6.14
2018-12-04T16:03:51.684Z,6.14
2018-12-04T16:06:22.523Z,6.16
2018-12-04T16:08:51.939Z,6.13
2018-12-04T16:11:21.787Z,6.15
2018-12-04T16:13:51.280Z,6.12
2018-12-04T16:16:21.243Z,6.08
2018-12-04T16:18:50.220Z,6.09
2018-12-04T16:21:19.497Z,6.00
2018-12-04T16:23:50.055Z,6.01
2018-12-04T16:26:19.486Z,6.07
2018-12-04T16:28:49.366Z,5.98
2018-12-04T16:31:18.634Z,6.08
2018-12-04T16:33:48.511Z,6.06
2018-12-04T16:36:19.035Z,6.07
2018-12-04T16:38:54.918Z,5.47
2018-12-04T16:41:24.276Z,5.99
2018-12-04T16:43:53.514Z,6.05
2018-12-04T16:46:23.269Z,6.02
2018-12-04T16:48:52.472Z,6.01
2018-12-04T16:51:23.041Z,5.99
2018-12-04T16:53:54.222Z,6.03
2018-12-04T16:56:23.598Z,6.03
2018-12-04T16:58:52.979Z,6.13
2018-12-04T17:01:22.379Z,6.14
2018-12-04T17:03:53.394Z,6.16
2018-12-04T17:06:23.566Z,6.10
2018-12-04T17:08:54.092Z,6.09
2018-12-04T17:11:23.524Z,6.06
2018-12-04T17:13:53.715Z,6.07
2018-12-04T17:16:30.038Z,6.06
2018-12-04T17:18:59.433Z,6.00
2018-12-04T17:21:29.101Z,5.99
2018-12-04T17:23:58.409Z,5.99
2018-12-04T17:26:27.790Z,6.00
2018-12-04T17:28:57.340Z,5.96
2018-12-04T17:31:26.997Z,5.94
2018-12-04T17:33:56.442Z,5.95
2018-12-04T17:36:25.942Z,5.95
2018-12-04T17:38:55.568Z,5.93
2018-12-04T17:41:24.942Z,5.96
2018-12-04T17:43:55.011Z,5.95
2018-12-04T17:46:24.735Z,5.97
2018-12-04T17:48:54.416Z,5.93
2018-12-04T17:51:24.360Z,5.92
2018-12-04T17:53:53.753Z,5.89
2018-12-04T17:56:23.266Z,5.91
2018-12-04T17:58:52.835Z,5.93
2018-12-04T18:01:22.032Z,5.93
2018-12-04T18:03:51.602Z,5.90
2018-12-04T18:06:21.334Z,5.87
2018-12-04T18:08:51.808Z,6.02
2018-12-04T18:11:21.006Z,5.96
2018-12-04T18:13:51.173Z,5.85
2018-12-04T18:16:20.251Z,5.78
2018-12-04T18:18:49.291Z,5.87
2018-12-04T18:21:18.875Z,5.87
2018-12-04T18:23:48.384Z,5.84
2018-12-04T18:26:18.242Z,5.80
2018-12-04T18:28:47.805Z,5.79
2018-12-04T18:31:17.707Z,5.81
2018-12-04T18:33:47.462Z,5.82
2018-12-04T18:36:17.095Z,5.80
2018-12-04T18:38:46.569Z,5.76
2018-12-04T18:41:16.088Z,5.79
2018-12-04T18:43:45.618Z,5.78
2018-12-04T18:46:16.457Z,5.80
2018-12-04T18:48:46.030Z,5.81
2018-12-04T18:51:15.099Z,5.76
2018-12-04T18:53:44.923Z,5.77
2018-12-04T18:56:14.332Z,5.79
2018-12-04T18:58:43.453Z,5.69
2018-12-04T19:01:13.682Z,5.72
2018-12-04T19:03:43.114Z,5.74
2018-12-04T19:06:12.904Z,5.71
2018-12-04T19:08:49.552Z,5.70
2018-12-04T19:11:19.185Z,5.68
2018-12-04T19:13:48.090Z,5.65
2018-12-04T19:16:17.904Z,5.63
2018-12-04T19:18:47.304Z,5.64
2018-12-04T19:21:16.486Z,5.63
2018-12-04T19:23:46.158Z,5.60
2018-12-04T19:26:15.563Z,5.61
2018-12-04T19:28:44.995Z,5.60
2018-12-04T19:31:14.808Z,5.66
2018-12-04T19:33:44.396Z,5.68
2018-12-04T19:36:13.954Z,5.59
2018-12-04T19:38:43.185Z,5.58
2018-12-04T19:41:12.238Z,5.54
2018-12-04T19:43:42.091Z,5.53
2018-12-04T19:46:11.906Z,5.51
2018-12-04T19:48:41.426Z,5.52
2018-12-04T19:51:11.126Z,5.49
2018-12-04T19:53:40.924Z,5.50
2018-12-04T19:56:10.861Z,5.48
2018-12-04T19:58:40.287Z,5.48
2018-12-04T20:01:10.162Z,5.47
2018-12-04T20:03:41.409Z,5.48
2018-12-04T20:06:11.033Z,5.43
2018-12-04T20:08:45.158Z,5.53
2018-12-04T20:11:14.998Z,5.50
2018-12-04T20:13:44.390Z,5.52
2018-12-04T20:16:13.842Z,5.47
2018-12-04T20:18:43.194Z,5.44
2018-12-04T20:21:12.608Z,5.40
2018-12-04T20:23:42.029Z,5.40
2018-12-04T20:26:11.541Z,5.42
2018-12-04T20:28:40.915Z,5.38
2018-12-04T20:31:41.397Z,5.44
2018-12-04T20:34:11.081Z,5.44
2018-12-04T20:36:40.729Z,5.44
2018-12-04T20:39:10.992Z,5.35
2018-12-04T20:41:40.547Z,5.34
2018-12-04T20:44:10.102Z,5.34
2018-12-04T20:46:39.722Z,5.30
2018-12-04T20:49:09.642Z,5.31
2018-12-04T20:51:39.445Z,5.35
2018-12-04T20:54:09.574Z,5.37
2018-12-04T20:56:40.265Z,5.33
2018-12-04T20:59:09.602Z,5.32
2018-12-04T21:01:40.607Z,5.37
2018-12-04T21:04:10.087Z,5.29
2018-12-04T21:06:39.671Z,5.28
2018-12-04T21:09:09.903Z,5.28
2018-12-04T21:11:39.868Z,5.23
2018-12-04T21:14:09.686Z,5.27
2018-12-04T21:16:39.459Z,5.22
2018-12-04T21:19:09.524Z,5.20
2018-12-04T21:21:39.352Z,5.17
2018-12-04T21:24:09.229Z,5.21
2018-12-04T21:26:39.200Z,5.26
2018-12-04T21:29:13.626Z,5.23
2018-12-04T21:31:48.118Z,5.16
2018-12-04T21:34:22.251Z,5.22
2018-12-04T21:36:56.376Z,5.30
2018-12-04T21:39:30.788Z,5.33
2018-12-04T21:42:04.032Z,5.30
2018-12-04T21:44:38.309Z,5.30
2018-12-04T21:47:12.701Z,5.27
2018-12-04T21:49:42.133Z,5.31
2018-12-04T21:52:11.582Z,5.23
2018-12-04T21:54:41.005Z,5.21
2018-12-04T21:57:10.581Z,5.15
2018-12-04T21:59:39.937Z,5.16
2018-12-04T22:02:09.467Z,5.16
2018-12-04T22:04:38.980Z,5.06
2018-12-04T22:07:09.369Z,5.04
2018-12-04T22:09:38.632Z,5.07
2018-12-04T22:12:09.705Z,5.13
2018-12-04T22:14:39.421Z,5.15
2018-12-04T22:17:08.907Z,5.12
2018-12-04T22:19:38.454Z,5.09
2018-12-04T22:22:07.825Z,5.13
2018-12-04T22:24:37.424Z,4.31
2018-12-04T22:27:07.068Z,5.02
2018-12-04T22:29:36.469Z,5.08
2018-12-04T22:32:06.619Z,5.03
2018-12-04T22:34:36.113Z,5.02
2018-12-04T22:37:05.569Z,5.01
2018-12-04T22:39:35.045Z,4.94
2018-12-04T22:42:04.420Z,4.97
2018-12-04T22:44:33.931Z,4.99
2018-12-04T22:47:03.090Z,4.98
2018-12-04T22:49:32.415Z,4.94
2018-12-04T22:52:01.643Z,4.94
2018-12-04T22:54:30.984Z,4.88
2018-12-04T22:57:00.082Z,4.89
2018-12-04T22:59:29.390Z,4.89
2018-12-04T23:01:58.719Z,4.81
2018-12-04T23:04:28.144Z,4.88
2018-12-04T23:06:57.625Z,4.87
2018-12-04T23:09:27.220Z,4.92
2018-12-04T23:11:56.523Z,4.82
2018-12-04T23:14:25.863Z,4.83
2018-12-04T23:16:55.310Z,4.82
2018-12-04T23:19:24.923Z,4.85
2018-12-04T23:21:54.222Z,4.79
2018-12-04T23:24:23.458Z,4.72
2018-12-04T23:26:53.062Z,4.70
2018-12-04T23:29:22.327Z,4.73
2018-12-04T23:31:51.854Z,4.69
2018-12-04T23:34:21.191Z,4.62
2018-12-04T23:36:50.335Z,4.64
2018-12-04T23:39:19.665Z,4.64
2018-12-04T23:41:49.110Z,4.68
2018-12-04T23:44:20.579Z,4.59
2018-12-04T23:46:49.789Z,4.61
2018-12-04T23:49:19.048Z,4.64
2018-12-04T23:51:48.295Z,4.64
2018-12-04T23:54:17.615Z,4.61
2018-12-04T23:56:46.888Z,4.65
2018-12-04T23:59:16.249Z,4.62
